Terminal Aerodrome Forecast
Issued by NWS

Current Version | Previous Version | Text Only | Print | Product List | Glossary Off
Versions: 1 2 3 4 5 6 7 8 9 10 11 12 13 14 15 16 17 18 19 20 21 22 23 24 25 26 27 28

132
FTUS41 KILN 232330
TAFLUK
TAF
KLUK 232330Z 2400/2424 19003KT 6SM -RA BR FEW022 SCT080 BKN120
     FM240300 32006KT P6SM SCT035 BKN150
     FM240800 VRB03KT 3SM BR SCT200
     FM241400 28008KT P6SM SCT250=

USA.gov is the U.S. government's official web portal to all federal, state and local government web resources and services.